createdAt,value
2022-08-04T00:00:08.562Z,98168.50
2022-08-04T00:02:56.543Z,98175.16
2022-08-04T00:05:41.299Z,98172.00
2022-08-04T00:08:26.158Z,98166.72
2022-08-04T00:10:58.593Z,98173.31
2022-08-04T00:13:28.791Z,98170.06
2022-08-04T00:15:59.490Z,98168.47
2022-08-04T00:18:41.090Z,98170.41
2022-08-04T00:21:14.723Z,98167.38
2022-08-04T00:24:10.310Z,98160.88
2022-08-04T00:26:33.216Z,98163.31
2022-08-04T00:29:00.622Z,98164.66
2022-08-04T00:31:54.207Z,98169.53
2022-08-04T00:34:15.775Z,98168.47
2022-08-04T00:36:46.246Z,98165.69
2022-08-04T00:39:14.530Z,98164.63
2022-08-04T00:41:56.694Z,98166.78
2022-08-04T00:47:56.104Z,98162.09
2022-08-04T00:50:31.789Z,98162.59
2022-08-04T00:53:09.520Z,98157.63
2022-08-04T00:55:39.007Z,98162.22
2022-08-04T00:58:26.995Z,98169.28
2022-08-04T01:01:04.472Z,98164.88
2022-08-04T01:03:42.651Z,98169.50
2022-08-04T01:06:35.136Z,98164.63
2022-08-04T01:09:31.266Z,98165.16
2022-08-04T01:12:19.911Z,98157.81
2022-08-04T01:14:58.654Z,98163.25
2022-08-04T01:17:33.546Z,98167.56
2022-08-04T01:20:07.949Z,98169.69
2022-08-04T01:22:34.506Z,98168.56
2022-08-04T01:25:29.583Z,98172.09
2022-08-04T01:28:25.409Z,98165.56
2022-08-04T01:31:07.596Z,98178.09
2022-08-04T01:34:03.646Z,98169.16
2022-08-04T01:36:34.794Z,98167.88
2022-08-04T01:39:25.187Z,98172.59
2022-08-04T01:41:57.881Z,98166.19
2022-08-04T01:44:28.100Z,98160.22
2022-08-04T01:46:55.077Z,98165.97
2022-08-04T01:49:25.048Z,98170.06
2022-08-04T01:51:52.393Z,98178.81
2022-08-04T01:54:20.106Z,98167.66
2022-08-04T01:56:54.554Z,98171.47
2022-08-04T01:59:22.752Z,98167.97
2022-08-04T02:01:49.837Z,98163.31
2022-08-04T02:04:23.354Z,98160.88
2022-08-04T02:06:59.311Z,98169.56
2022-08-04T02:09:59.915Z,98167.69
2022-08-04T02:12:45.613Z,98159.50
2022-08-04T02:15:33.284Z,98161.41
2022-08-04T02:18:39.765Z,98161.66
2022-08-04T02:21:06.581Z,98154.56
2022-08-04T02:23:43.909Z,98151.25
2022-08-04T02:26:32.493Z,98154.75
2022-08-04T02:29:20.556Z,98152.53
2022-08-04T02:32:00.693Z,98151.56
2022-08-04T02:34:55.809Z,98150.41
2022-08-04T02:37:24.363Z,98146.50
2022-08-04T02:39:53.804Z,98149.97
2022-08-04T02:42:20.613Z,98136.09
2022-08-04T02:44:50.699Z,98143.41
2022-08-04T02:48:40.491Z,98143.03
2022-08-04T02:51:07.230Z,98145.69
2022-08-04T02:53:37.507Z,98144.25
2022-08-04T02:56:07.214Z,98141.47
2022-08-04T02:58:37.314Z,98135.28
2022-08-04T03:01:05.229Z,98139.00
2022-08-04T03:03:47.538Z,98135.06
2022-08-04T03:06:35.378Z,98140.88
2022-08-04T03:09:26.748Z,98137.44
2022-08-04T03:12:21.231Z,98142.66
2022-08-04T03:15:24.855Z,98131.13
2022-08-04T03:18:09.001Z,98147.25
2022-08-04T03:20:44.652Z,98145.25
2022-08-04T03:23:23.404Z,98148.25
2022-08-04T03:26:18.005Z,98150.63
2022-08-04T03:29:35.186Z,98156.56
2022-08-04T03:32:49.723Z,98156.22
2022-08-04T03:35:35.098Z,98165.78
2022-08-04T03:38:32.814Z,98168.22
2022-08-04T03:42:02.952Z,98165.28
2022-08-04T03:44:37.642Z,98170.69
2022-08-04T03:47:26.242Z,98169.03
2022-08-04T03:50:14.801Z,98164.13
2022-08-04T03:53:09.487Z,98169.00
2022-08-04T03:56:11.289Z,98163.06
2022-08-04T03:59:24.577Z,98168.41
2022-08-04T04:02:12.614Z,98165.94
2022-08-04T04:05:12.038Z,98161.31
2022-08-04T04:08:01.760Z,98173.31
2022-08-04T04:10:52.589Z,98175.03
2022-08-04T04:13:37.998Z,98171.34
2022-08-04T04:16:26.256Z,98167.16
2022-08-04T04:18:52.831Z,98180.03
2022-08-04T04:21:47.298Z,98179.13
2022-08-04T04:24:43.631Z,98174.38
2022-08-04T04:27:34.833Z,98178.38
2022-08-04T04:30:05.216Z,98173.88
2022-08-04T04:32:59.895Z,98171.59
2022-08-04T04:35:42.296Z,98177.47
2022-08-04T04:38:15.007Z,98183.84
2022-08-04T04:41:05.948Z,98184.31
2022-08-04T04:44:06.723Z,98186.13
2022-08-04T04:50:04.494Z,98188.59
2022-08-04T04:52:43.425Z,98190.16
2022-08-04T04:55:27.722Z,98192.84
2022-08-04T04:57:58.681Z,98199.63
2022-08-04T05:00:37.760Z,98196.00
2022-08-04T05:03:28.948Z,98193.63
2022-08-04T05:06:15.485Z,98200.06
2022-08-04T05:08:58.450Z,98192.44
2022-08-04T05:11:44.045Z,98208.53
2022-08-04T05:14:34.419Z,98210.75
2022-08-04T05:17:27.882Z,98206.97
2022-08-04T05:20:25.003Z,98204.19
2022-08-04T05:22:59.932Z,98205.41
2022-08-04T05:25:41.045Z,98209.19
2022-08-04T05:28:20.815Z,98208.94
2022-08-04T05:30:51.790Z,98218.94
2022-08-04T05:33:29.206Z,98208.25
2022-08-04T05:36:20.723Z,98214.03
2022-08-04T05:38:49.595Z,98201.81
2022-08-04T05:41:16.629Z,98205.34
2022-08-04T05:43:45.440Z,98209.41
2022-08-04T05:46:13.565Z,98202.03
2022-08-04T05:48:41.938Z,98214.13
2022-08-04T05:51:11.115Z,98209.81
2022-08-04T05:53:39.240Z,98212.84
2022-08-04T05:56:06.984Z,98211.97
2022-08-04T05:58:35.918Z,98214.19
2022-08-04T06:01:04.236Z,98216.91
2022-08-04T06:03:33.212Z,98219.22
2022-08-04T06:06:01.313Z,98223.06
2022-08-04T06:08:29.816Z,98226.50
2022-08-04T06:10:59.184Z,98223.72
2022-08-04T06:13:47.524Z,98225.50
2022-08-04T06:16:28.790Z,98224.06
2022-08-04T06:19:59.309Z,98224.25
2022-08-04T06:21:50.443Z,98226.41
2022-08-04T06:24:20.981Z,98228.56
2022-08-04T06:26:50.014Z,98222.66
2022-08-04T06:29:24.939Z,98225.59
2022-08-04T06:32:27.840Z,98221.00
2022-08-04T06:34:45.902Z,98223.28
2022-08-04T06:37:24.172Z,98222.81
2022-08-04T06:40:02.023Z,98232.16
2022-08-04T06:42:29.850Z,98231.34
2022-08-04T06:44:58.566Z,98229.66
2022-08-04T06:51:30.734Z,98230.50
2022-08-04T06:53:27.260Z,98223.53
2022-08-04T06:55:57.962Z,98233.50
2022-08-04T06:58:25.981Z,98232.44
2022-08-04T07:00:55.063Z,98229.94
2022-08-04T07:03:22.478Z,98225.06
2022-08-04T07:05:51.485Z,98232.91
2022-08-04T07:08:19.348Z,98225.28
2022-08-04T07:10:46.651Z,98228.25
2022-08-04T07:13:14.002Z,98230.91
2022-08-04T07:15:47.407Z,98225.63
2022-08-04T07:18:14.300Z,98225.09
2022-08-04T07:20:45.781Z,98232.59
2022-08-04T07:23:17.717Z,98228.25
2022-08-04T07:26:11.055Z,98226.81
2022-08-04T07:28:36.832Z,98225.56
2022-08-04T07:31:05.401Z,98229.22
2022-08-04T07:33:32.607Z,98235.75
2022-08-04T07:36:04.744Z,98238.41
2022-08-04T07:38:37.716Z,98231.00
2022-08-04T07:41:37.393Z,98238.19
2022-08-04T07:44:06.978Z,98233.28
2022-08-04T07:46:34.238Z,98238.38
2022-08-04T07:49:01.661Z,98237.97
2022-08-04T07:51:30.707Z,98244.31
2022-08-04T07:53:58.098Z,98242.72
2022-08-04T07:56:28.020Z,98234.16
2022-08-04T07:58:55.386Z,98230.25
2022-08-04T08:01:23.619Z,98231.75
2022-08-04T08:03:52.987Z,98226.25
2022-08-04T08:06:32.260Z,98220.78
2022-08-04T08:09:02.204Z,98231.50
2022-08-04T08:12:35.823Z,98234.84
2022-08-04T08:14:31.836Z,98228.75
2022-08-04T08:17:00.336Z,98230.59
2022-08-04T08:19:27.577Z,98223.63
2022-08-04T08:21:59.670Z,98232.06
2022-08-04T08:24:31.996Z,98231.16
2022-08-04T08:27:00.403Z,98236.75
2022-08-04T08:29:32.547Z,98238.84
2022-08-04T08:32:07.411Z,98229.81
2022-08-04T08:34:35.154Z,98231.44
2022-08-04T08:37:05.108Z,98233.13
2022-08-04T08:39:59.070Z,98228.66
2022-08-04T08:42:44.425Z,98237.09
2022-08-04T08:45:32.943Z,98239.38
2022-08-04T08:52:57.574Z,98234.38
2022-08-04T08:55:30.649Z,98233.72
2022-08-04T08:58:20.898Z,98229.47
2022-08-04T09:01:02.196Z,98238.00
2022-08-04T09:03:40.989Z,98225.28
2022-08-04T09:06:26.424Z,98233.25
2022-08-04T09:09:02.321Z,98231.94
2022-08-04T09:11:39.932Z,98234.06
2022-08-04T09:14:20.766Z,98228.72
2022-08-04T09:17:05.961Z,98228.75
2022-08-04T09:19:52.927Z,98221.50
2022-08-04T09:22:25.628Z,98241.28
2022-08-04T09:25:14.854Z,98241.53
2022-08-04T09:27:48.924Z,98231.09
2022-08-04T09:30:19.854Z,98238.72
2022-08-04T09:33:45.386Z,98235.22
2022-08-04T09:36:30.006Z,98230.59
2022-08-04T09:39:09.929Z,98223.34
2022-08-04T09:41:49.245Z,98221.88
2022-08-04T09:44:53.013Z,98223.09
2022-08-04T09:47:50.766Z,98226.06
2022-08-04T09:50:20.499Z,98225.72
2022-08-04T09:52:55.640Z,98216.84
2022-08-04T09:55:54.531Z,98221.53
2022-08-04T09:58:41.739Z,98221.38
2022-08-04T10:01:11.795Z,98224.63
2022-08-04T10:03:45.122Z,98217.97
2022-08-04T10:07:01.031Z,98218.41
2022-08-04T10:09:34.392Z,98225.63
2022-08-04T10:12:12.950Z,98214.69
2022-08-04T10:14:52.974Z,98220.69
2022-08-04T10:17:43.626Z,98218.03
2022-08-04T10:20:54.041Z,98216.34
2022-08-04T10:24:05.616Z,98203.88
2022-08-04T10:26:50.590Z,98214.50
2022-08-04T10:29:26.659Z,98209.72
2022-08-04T10:32:09.577Z,98200.91
2022-08-04T10:35:10.958Z,98199.06
2022-08-04T10:38:01.626Z,98208.78
2022-08-04T10:40:37.901Z,98199.03
2022-08-04T10:43:22.573Z,98198.78
2022-08-04T10:45:58.636Z,98197.81
2022-08-04T10:48:50.719Z,98204.31
2022-08-04T10:52:48.802Z,98191.72
2022-08-04T10:56:07.045Z,98201.84
2022-08-04T10:58:20.608Z,98193.28
2022-08-04T11:00:49.248Z,98188.81
2022-08-04T11:03:26.750Z,98185.03
2022-08-04T11:06:02.848Z,98182.94
2022-08-04T11:08:35.708Z,98179.34
2022-08-04T11:11:32.369Z,98187.75
2022-08-04T11:14:26.199Z,98185.16
2022-08-04T11:17:05.183Z,98187.28
2022-08-04T11:19:45.298Z,98192.25
2022-08-04T11:22:25.693Z,98186.72
2022-08-04T11:25:22.343Z,98174.38
2022-08-04T11:28:13.873Z,98186.50
2022-08-04T11:30:48.390Z,98170.84
2022-08-04T11:33:31.838Z,98179.28
2022-08-04T11:36:08.788Z,98184.09
2022-08-04T11:38:53.481Z,98171.94
2022-08-04T11:41:33.890Z,98179.16
2022-08-04T11:44:06.724Z,98180.03
2022-08-04T11:46:46.794Z,98172.34
2022-08-04T11:49:56.066Z,98169.47
2022-08-04T11:52:27.928Z,98171.16
2022-08-04T11:54:57.220Z,98167.78
2022-08-04T11:57:35.398Z,98158.81
2022-08-04T12:00:07.412Z,98165.47
2022-08-04T12:02:52.898Z,98159.88
2022-08-04T12:05:35.982Z,98152.09
2022-08-04T12:08:15.504Z,98152.72
2022-08-04T12:11:06.202Z,98160.59
2022-08-04T12:13:46.269Z,98159.63
2022-08-04T12:16:18.218Z,98147.03
2022-08-04T12:19:03.236Z,98157.72
2022-08-04T12:21:44.196Z,98152.88
2022-08-04T12:24:49.239Z,98149.19
2022-08-04T12:27:30.671Z,98156.06
2022-08-04T12:31:01.646Z,98143.03
2022-08-04T12:33:05.569Z,98147.41
2022-08-04T12:35:58.049Z,98152.47
2022-08-04T12:38:50.120Z,98140.13
2022-08-04T12:41:24.857Z,98136.41
2022-08-04T12:43:51.626Z,98126.63
2022-08-04T12:46:24.013Z,98126.09
2022-08-04T12:48:51.412Z,98121.91
2022-08-04T12:53:51.262Z,98122.75
2022-08-04T12:56:26.667Z,98121.09
2022-08-04T12:59:00.373Z,98125.34
2022-08-04T13:02:08.423Z,98115.94
2022-08-04T13:04:28.983Z,98118.25
2022-08-04T13:07:12.908Z,98114.81
2022-08-04T13:09:40.980Z,98107.66
2022-08-04T13:12:20.928Z,98105.69
2022-08-04T13:14:50.816Z,98105.38
2022-08-04T13:17:17.653Z,98112.59
2022-08-04T13:19:50.118Z,98109.41
2022-08-04T13:22:28.925Z,98100.16
2022-08-04T13:26:40.299Z,98095.59
2022-08-04T13:27:48.810Z,98101.44
2022-08-04T13:30:23.489Z,98098.34
2022-08-04T13:32:55.685Z,98097.25
2022-08-04T13:35:25.886Z,98091.25
2022-08-04T13:38:12.616Z,98097.47
2022-08-04T13:40:42.092Z,98096.28
2022-08-04T13:44:15.821Z,98100.84
2022-08-04T13:46:05.915Z,98102.84
2022-08-04T13:48:40.367Z,98095.34
2022-08-04T13:51:09.385Z,98097.09
2022-08-04T13:53:38.838Z,98091.13
2022-08-04T13:56:08.777Z,98096.34
2022-08-04T13:58:42.833Z,98094.59
2022-08-04T14:01:20.320Z,98094.25
2022-08-04T14:03:53.818Z,98093.09
2022-08-04T14:06:25.569Z,98091.97
2022-08-04T14:09:01.115Z,98090.69
2022-08-04T14:12:10.044Z,98083.72
2022-08-04T14:14:23.407Z,98078.53
2022-08-04T14:17:08.364Z,98073.81
2022-08-04T14:19:55.848Z,98069.38
2022-08-04T14:22:28.874Z,98068.88
2022-08-04T14:24:56.149Z,98074.41
2022-08-04T14:27:23.116Z,98066.19
2022-08-04T14:29:50.073Z,98065.38
2022-08-04T14:32:20.374Z,98059.38
2022-08-04T14:34:51.096Z,98060.50
2022-08-04T14:37:20.504Z,98061.69
2022-08-04T14:40:18.570Z,98066.72
2022-08-04T14:42:55.775Z,98053.03
2022-08-04T14:45:38.145Z,98055.31
2022-08-04T14:48:10.217Z,98051.88
2022-08-04T14:50:38.506Z,98053.69
2022-08-04T14:54:36.229Z,98053.69
2022-08-04T14:57:05.950Z,98058.91
2022-08-04T14:59:44.170Z,98057.75
2022-08-04T15:02:29.803Z,98066.84
2022-08-04T15:04:57.662Z,98059.91
2022-08-04T15:07:24.846Z,98062.84
2022-08-04T15:09:51.762Z,98063.31
2022-08-04T15:12:18.585Z,98061.56
2022-08-04T15:14:45.479Z,98065.59
2022-08-04T15:17:30.025Z,98063.19
2022-08-04T15:19:57.540Z,98062.22
2022-08-04T15:22:24.449Z,98066.13
2022-08-04T15:24:55.034Z,98056.06
2022-08-04T15:27:27.422Z,98058.03
2022-08-04T15:30:01.611Z,98052.50
2022-08-04T15:32:32.039Z,98050.88
2022-08-04T15:35:04.705Z,98044.22
2022-08-04T15:37:54.251Z,98044.53
2022-08-04T15:40:33.558Z,98042.59
2022-08-04T15:43:19.441Z,98042.78
2022-08-04T15:46:37.252Z,98038.06
2022-08-04T15:48:47.549Z,98036.28
2022-08-04T15:51:30.436Z,98034.19
2022-08-04T15:54:02.609Z,98032.25
2022-08-04T15:56:31.133Z,98035.38
2022-08-04T15:58:57.956Z,98031.78
2022-08-04T16:01:25.030Z,98037.31
2022-08-04T16:04:00.470Z,98036.81
2022-08-04T16:06:29.583Z,98039.78
2022-08-04T16:09:02.129Z,98032.16
2022-08-04T16:11:33.131Z,98039.94
2022-08-04T16:13:59.992Z,98035.59
2022-08-04T16:16:27.879Z,98032.63
2022-08-04T16:18:54.920Z,98032.63
2022-08-04T16:21:25.685Z,98036.03
2022-08-04T16:24:00.607Z,98033.94
2022-08-04T16:26:38.267Z,98028.25
2022-08-04T16:29:24.017Z,98028.75
2022-08-04T16:32:06.140Z,98039.19
2022-08-04T16:34:48.413Z,98034.47
2022-08-04T16:37:18.137Z,98039.69
2022-08-04T16:39:50.049Z,98032.72
2022-08-04T16:42:31.564Z,98031.28
2022-08-04T16:45:08.314Z,98031.09
2022-08-04T16:47:50.051Z,98030.94
2022-08-04T16:50:19.067Z,98020.88
2022-08-04T16:55:50.038Z,98031.41
2022-08-04T16:58:37.138Z,98026.88
2022-08-04T17:01:32.666Z,98021.84
2022-08-04T17:04:05.057Z,98017.78
2022-08-04T17:06:40.121Z,98016.94
2022-08-04T17:09:18.343Z,98017.91
2022-08-04T17:11:46.856Z,98021.16
2022-08-04T17:14:13.806Z,98025.47
2022-08-04T17:16:42.403Z,98018.78
2022-08-04T17:19:19.860Z,98019.78
2022-08-04T17:21:52.093Z,98012.63
2022-08-04T17:24:18.734Z,98028.28
2022-08-04T17:26:53.945Z,98021.13
2022-08-04T17:29:42.960Z,98024.50
2022-08-04T17:32:14.747Z,98022.50
2022-08-04T17:34:41.615Z,98022.13
2022-08-04T17:37:37.861Z,98029.00
2022-08-04T17:40:13.473Z,98028.97
2022-08-04T17:42:42.002Z,98021.28
2022-08-04T17:45:50.212Z,98026.94
2022-08-04T17:48:08.998Z,98028.31
2022-08-04T17:50:36.306Z,98025.19
2022-08-04T17:53:11.619Z,98022.03
2022-08-04T17:55:49.505Z,98021.84
2022-08-04T17:58:23.205Z,98027.56
2022-08-04T18:01:22.467Z,98035.13
2022-08-04T18:03:53.368Z,98028.72
2022-08-04T18:06:23.404Z,98030.09
2022-08-04T18:08:57.387Z,98038.78
2022-08-04T18:11:28.671Z,98041.97
2022-08-04T18:13:57.216Z,98043.16
2022-08-04T18:16:24.461Z,98035.03
2022-08-04T18:19:15.377Z,98041.00
2022-08-04T18:21:46.730Z,98051.25
2022-08-04T18:24:35.404Z,98051.78
2022-08-04T18:27:17.841Z,98054.13
2022-08-04T18:29:50.212Z,98053.13
2022-08-04T18:32:33.179Z,98049.59
2022-08-04T18:35:05.480Z,98050.47
2022-08-04T18:38:06.034Z,98048.22
2022-08-04T18:40:29.987Z,98045.22
2022-08-04T18:43:01.995Z,98046.84
2022-08-04T18:45:34.692Z,98041.97
2022-08-04T18:48:14.142Z,98053.44
2022-08-04T18:51:09.272Z,98048.66
2022-08-04T18:56:37.923Z,98059.97
2022-08-04T18:59:17.674Z,98047.00
2022-08-04T19:02:13.231Z,98057.78
2022-08-04T19:04:36.723Z,98060.66
2022-08-04T19:07:29.790Z,98064.38
2022-08-04T19:09:53.934Z,98065.16
2022-08-04T19:12:26.347Z,98065.34
2022-08-04T19:15:08.490Z,98057.59
2022-08-04T19:17:53.743Z,98059.91
2022-08-04T19:20:25.776Z,98070.63
2022-08-04T19:24:23.472Z,98061.19
2022-08-04T19:26:02.549Z,98065.13
2022-08-04T19:28:43.298Z,98066.03
2022-08-04T19:31:25.023Z,98063.41
2022-08-04T19:34:10.261Z,98062.09
2022-08-04T19:36:45.910Z,98048.50
2022-08-04T19:39:18.909Z,98052.66
2022-08-04T19:42:05.603Z,98059.53
2022-08-04T19:44:34.179Z,98053.00
2022-08-04T19:47:02.286Z,98057.91
2022-08-04T19:50:04.352Z,98059.03
2022-08-04T19:52:39.568Z,98056.03
2022-08-04T19:55:19.105Z,98060.44
2022-08-04T19:57:49.419Z,98049.56
2022-08-04T20:00:26.137Z,98052.59
2022-08-04T20:03:11.581Z,98056.94
2022-08-04T20:08:29.976Z,98057.81
2022-08-04T20:10:57.980Z,98069.53
2022-08-04T20:13:37.427Z,98065.16
2022-08-04T20:16:28.190Z,98059.72
2022-08-04T20:18:59.483Z,98062.44
2022-08-04T20:21:36.418Z,98052.09
2022-08-04T20:24:38.908Z,98058.34
2022-08-04T20:26:56.155Z,98063.25
2022-08-04T20:29:40.161Z,98061.34
2022-08-04T20:32:11.367Z,98055.59
2022-08-04T20:34:40.162Z,98071.41
2022-08-04T20:37:10.387Z,98068.41
2022-08-04T20:39:37.630Z,98067.56
2022-08-04T20:42:04.625Z,98062.13
2022-08-04T20:44:31.319Z,98060.47
2022-08-04T20:46:58.472Z,98066.72
2022-08-04T20:49:35.177Z,98066.44
2022-08-04T20:52:13.321Z,98059.34
2022-08-04T20:57:47.644Z,98060.09
2022-08-04T21:00:17.691Z,98060.06
2022-08-04T21:02:56.916Z,98057.31
2022-08-04T21:05:23.581Z,98063.25
2022-08-04T21:07:56.741Z,98068.66
2022-08-04T21:10:25.736Z,98061.56
2022-08-04T21:12:53.038Z,98063.75
2022-08-04T21:15:25.054Z,98059.34
2022-08-04T21:17:58.526Z,98061.22
2022-08-04T21:20:31.370Z,98067.44
2022-08-04T21:23:02.039Z,98060.91
2022-08-04T21:25:29.563Z,98063.91
2022-08-04T21:27:58.606Z,98062.00
2022-08-04T21:30:30.546Z,98059.00
2022-08-04T21:32:57.134Z,98060.63
2022-08-04T21:35:30.843Z,98061.97
2022-08-04T21:38:16.586Z,98057.06
2022-08-04T21:40:55.298Z,98061.13
2022-08-04T21:43:23.660Z,98060.84
2022-08-04T21:45:55.040Z,98066.75
2022-08-04T21:48:22.684Z,98067.25
2022-08-04T21:50:50.787Z,98067.22
2022-08-04T21:53:19.509Z,98057.38
2022-08-04T21:56:06.603Z,98062.81
2022-08-04T21:58:34.865Z,98057.38
2022-08-04T22:01:12.835Z,98064.72
2022-08-04T22:03:52.554Z,98065.50
2022-08-04T22:06:28.097Z,98062.75
2022-08-04T22:08:57.216Z,98060.50
2022-08-04T22:11:43.977Z,98057.47
2022-08-04T22:14:16.162Z,98063.44
2022-08-04T22:16:45.263Z,98050.56
2022-08-04T22:19:13.550Z,98061.19
2022-08-04T22:21:46.635Z,98053.84
2022-08-04T22:24:14.286Z,98059.03
2022-08-04T22:26:41.533Z,98056.31
2022-08-04T22:29:14.458Z,98055.22
2022-08-04T22:31:55.566Z,98054.75
2022-08-04T22:34:24.919Z,98045.56
2022-08-04T22:36:52.522Z,98048.59
2022-08-04T22:39:23.689Z,98054.38
2022-08-04T22:42:03.518Z,98047.06
2022-08-04T22:44:33.168Z,98054.13
2022-08-04T22:47:00.729Z,98057.88
2022-08-04T22:49:31.802Z,98054.00
2022-08-04T22:51:59.797Z,98046.25
2022-08-04T22:54:31.857Z,98050.50
2022-08-04T22:58:44.874Z,98044.34
2022-08-04T23:01:15.264Z,98039.91
2022-08-04T23:03:51.247Z,98041.47
2022-08-04T23:06:24.621Z,98034.38
2022-08-04T23:08:51.752Z,98039.50
2022-08-04T23:11:18.436Z,98026.75
2022-08-04T23:13:45.454Z,98024.63
2022-08-04T23:16:14.165Z,98025.69
2022-08-04T23:18:42.116Z,98014.22
2022-08-04T23:21:12.371Z,98010.97
2022-08-04T23:23:45.701Z,98009.03
2022-08-04T23:26:27.874Z,98000.03
2022-08-04T23:28:56.219Z,98009.31
2022-08-04T23:31:23.621Z,98007.41
2022-08-04T23:33:52.100Z,98009.56
2022-08-04T23:36:29.969Z,98005.47
2022-08-04T23:39:03.955Z,98002.19
2022-08-04T23:41:55.221Z,98005.97
2022-08-04T23:44:25.642Z,97998.34
2022-08-04T23:47:00.391Z,97991.81
2022-08-04T23:49:44.588Z,98001.38
2022-08-04T23:52:27.864Z,97992.72
2022-08-04T23:55:00.425Z,97997.09
2022-08-04T23:58:02.351Z,97992.22
